createdAt,value
2022-09-15T00:00:43.770Z,18.26
2022-09-15T00:01:45.125Z,18.25
2022-09-15T00:02:46.703Z,18.25
2022-09-15T00:03:48.605Z,18.25
2022-09-15T00:04:49.950Z,18.25
2022-09-15T00:05:52.453Z,18.24
2022-09-15T00:06:53.808Z,18.22
2022-09-15T00:07:55.188Z,18.22
2022-09-15T00:08:56.589Z,18.21
2022-09-15T00:09:57.916Z,18.27
2022-09-15T00:11:06.070Z,18.25
2022-09-15T00:12:07.507Z,18.24
2022-09-15T00:13:08.867Z,18.25
2022-09-15T00:14:10.226Z,18.24
2022-09-15T00:15:13.118Z,18.24
2022-09-15T00:16:15.615Z,18.25
2022-09-15T00:17:17.122Z,18.23
2022-09-15T00:18:18.496Z,18.21
2022-09-15T00:19:19.834Z,18.18
2022-09-15T00:20:21.480Z,18.17
2022-09-15T00:21:24.082Z,18.16
2022-09-15T00:22:25.477Z,18.14
2022-09-15T00:23:26.818Z,18.13
2022-09-15T00:24:28.127Z,18.11
2022-09-15T00:25:29.526Z,18.13
2022-09-15T00:26:30.898Z,18.13
2022-09-15T00:27:32.730Z,18.09
2022-09-15T00:28:34.470Z,18.09
2022-09-15T00:29:36.297Z,18.11
2022-09-15T00:30:44.464Z,18.12
2022-09-15T00:31:45.846Z,18.11
2022-09-15T00:32:47.188Z,18.12
2022-09-15T00:33:52.581Z,18.11
2022-09-15T00:34:53.968Z,18.11
2022-09-15T00:35:55.277Z,18.12
2022-09-15T00:36:56.581Z,18.10
2022-09-15T00:37:57.902Z,18.11
2022-09-15T00:38:59.365Z,18.12
2022-09-15T00:40:00.813Z,18.15
2022-09-15T00:41:02.802Z,18.17
2022-09-15T00:42:04.241Z,18.16
2022-09-15T00:43:08.727Z,18.18
2022-09-15T00:44:16.106Z,18.17
2022-09-15T00:45:17.437Z,18.20
2022-09-15T00:46:27.838Z,18.18
2022-09-15T00:47:31.026Z,18.17
2022-09-15T00:48:33.162Z,18.17
2022-09-15T00:49:36.754Z,18.16
2022-09-15T00:50:39.916Z,18.15
2022-09-15T00:51:43.963Z,18.17
2022-09-15T00:52:45.252Z,18.18
2022-09-15T00:53:47.993Z,18.20
2022-09-15T00:54:52.311Z,18.20
2022-09-15T00:55:54.513Z,18.17
2022-09-15T00:56:58.246Z,18.17
2022-09-15T00:58:04.121Z,18.15
2022-09-15T00:59:07.939Z,18.16
2022-09-15T01:00:11.683Z,18.15
2022-09-15T01:01:14.368Z,18.17
2022-09-15T01:02:18.777Z,18.17
2022-09-15T01:03:20.217Z,18.19
2022-09-15T01:04:21.581Z,18.21
2022-09-15T01:05:25.517Z,18.21
2022-09-15T01:06:30.654Z,18.21
2022-09-15T01:08:01.093Z,18.22
2022-09-15T01:09:08.616Z,18.24
2022-09-15T01:10:19.156Z,18.28
2022-09-15T01:11:20.513Z,18.28
2022-09-15T01:12:22.266Z,18.27
2022-09-15T01:13:23.604Z,18.27
2022-09-15T01:14:24.949Z,18.28
2022-09-15T01:15:29.649Z,18.26
2022-09-15T01:16:31.027Z,18.26
2022-09-15T01:17:44.665Z,18.24
2022-09-15T01:18:48.980Z,18.22
2022-09-15T01:20:09.086Z,18.20
2022-09-15T01:21:10.409Z,18.21
2022-09-15T01:22:26.781Z,18.17
2022-09-15T01:23:46.729Z,18.13
2022-09-15T01:25:03.077Z,18.06
2022-09-15T01:26:10.432Z,18.05
2022-09-15T01:27:40.956Z,18.03
2022-09-15T01:29:05.525Z,17.99
2022-09-15T01:30:09.891Z,17.96
2022-09-15T01:31:17.336Z,17.98
2022-09-15T01:32:37.496Z,17.97
2022-09-15T01:34:01.829Z,17.95
2022-09-15T01:35:09.119Z,17.93
2022-09-15T01:36:13.563Z,17.94
2022-09-15T01:37:20.538Z,17.98
2022-09-15T01:38:24.652Z,17.97
2022-09-15T01:39:29.145Z,17.98
2022-09-15T01:40:34.671Z,17.97
2022-09-15T01:41:35.982Z,17.97
2022-09-15T01:42:37.652Z,17.99
2022-09-15T01:43:51.233Z,17.98
2022-09-15T01:44:56.249Z,18.01
2022-09-15T01:45:58.489Z,18.04
2022-09-15T01:47:02.040Z,18.03
2022-09-15T01:48:04.977Z,18.03
2022-09-15T01:49:08.571Z,18.04
2022-09-15T01:50:12.185Z,18.01
2022-09-15T01:51:14.030Z,18.01
2022-09-15T01:52:17.004Z,18.01
2022-09-15T01:53:20.421Z,18.02
2022-09-15T01:54:33.839Z,18.02
2022-09-15T01:55:51.401Z,18.01
2022-09-15T01:56:52.750Z,18.01
2022-09-15T01:57:54.040Z,18.00
2022-09-15T01:58:55.454Z,18.02
2022-09-15T01:59:56.926Z,18.01
2022-09-15T02:01:04.811Z,17.99
2022-09-15T02:02:12.961Z,17.97
2022-09-15T02:03:18.881Z,17.97
2022-09-15T02:04:23.203Z,17.95
2022-09-15T02:05:42.109Z,17.93
2022-09-15T02:06:46.427Z,17.93
2022-09-15T02:07:53.292Z,17.91
2022-09-15T02:09:00.321Z,17.90
2022-09-15T02:10:10.696Z,17.90
2022-09-15T02:11:12.030Z,17.90
2022-09-15T02:12:25.273Z,17.90
2022-09-15T02:13:26.549Z,17.88
2022-09-15T02:14:35.338Z,17.87
2022-09-15T02:15:48.434Z,17.84
2022-09-15T02:16:52.199Z,17.84
2022-09-15T02:17:53.601Z,17.85
2022-09-15T02:18:59.074Z,17.84
2022-09-15T02:20:06.987Z,17.81
2022-09-15T02:21:16.428Z,17.81
2022-09-15T02:22:21.185Z,17.81
2022-09-15T02:23:35.973Z,17.78
2022-09-15T02:24:42.624Z,17.78
2022-09-15T02:25:46.926Z,17.75
2022-09-15T02:26:49.904Z,17.74
2022-09-15T02:27:52.658Z,17.75
2022-09-15T02:28:54.805Z,17.76
2022-09-15T02:29:58.653Z,17.77
2022-09-15T02:31:01.922Z,17.79
2022-09-15T02:32:07.220Z,17.79
2022-09-15T02:33:19.865Z,17.84
2022-09-15T02:34:23.376Z,17.82
2022-09-15T02:35:26.029Z,17.86
2022-09-15T02:36:28.900Z,17.85
2022-09-15T02:37:30.787Z,17.85
2022-09-15T02:38:34.788Z,17.84
2022-09-15T02:39:38.562Z,17.85
2022-09-15T02:40:41.585Z,17.84
2022-09-15T02:41:43.338Z,17.88
2022-09-15T02:42:54.825Z,17.86
2022-09-15T02:43:56.144Z,17.85
2022-09-15T02:44:58.177Z,17.84
2022-09-15T02:46:00.129Z,17.84
2022-09-15T02:47:02.250Z,17.85
2022-09-15T02:48:03.666Z,17.86
2022-09-15T02:49:05.056Z,17.90
2022-09-15T02:50:06.606Z,17.90
2022-09-15T02:51:07.962Z,17.90
2022-09-15T02:52:09.433Z,17.91
2022-09-15T02:53:10.764Z,17.92
2022-09-15T02:54:12.085Z,17.90
2022-09-15T02:55:13.483Z,17.93
2022-09-15T02:56:14.851Z,17.91
2022-09-15T02:57:16.202Z,17.92
2022-09-15T02:58:17.532Z,17.92
2022-09-15T02:59:19.332Z,17.93
2022-09-15T03:00:20.835Z,17.97
2022-09-15T03:01:27.049Z,17.95
2022-09-15T03:02:28.494Z,17.93
2022-09-15T03:03:30.310Z,17.96
2022-09-15T03:04:31.638Z,17.96
2022-09-15T03:05:32.946Z,17.95
2022-09-15T03:06:34.279Z,17.97
2022-09-15T03:07:36.140Z,17.99
2022-09-15T03:08:37.476Z,18.04
2022-09-15T03:09:38.815Z,18.05
2022-09-15T03:10:40.127Z,18.04
2022-09-15T03:11:41.445Z,18.04
2022-09-15T03:12:47.291Z,18.03
2022-09-15T03:13:52.348Z,18.03
2022-09-15T03:14:53.717Z,18.02
2022-09-15T03:15:55.121Z,18.01
2022-09-15T03:16:56.493Z,18.00
2022-09-15T03:17:57.853Z,17.98
2022-09-15T03:18:59.645Z,17.98
2022-09-15T03:20:01.021Z,17.97
2022-09-15T03:21:02.515Z,17.96
2022-09-15T03:22:03.817Z,17.98
2022-09-15T03:23:05.168Z,17.98
2022-09-15T03:24:06.501Z,17.96
2022-09-15T03:25:08.073Z,17.99
2022-09-15T03:26:10.106Z,17.97
2022-09-15T03:27:11.437Z,17.96
2022-09-15T03:28:12.763Z,18.00
2022-09-15T03:29:14.144Z,18.00
2022-09-15T03:30:15.471Z,18.00
2022-09-15T03:31:17.036Z,17.98
2022-09-15T03:32:18.386Z,17.96
2022-09-15T03:33:20.325Z,17.94
2022-09-15T03:34:21.635Z,17.94
2022-09-15T03:35:22.968Z,17.96
2022-09-15T03:36:24.320Z,17.96
2022-09-15T03:37:25.872Z,17.95
2022-09-15T03:38:27.202Z,17.95
2022-09-15T03:39:28.539Z,17.93
2022-09-15T03:40:29.944Z,17.95
2022-09-15T03:41:31.283Z,17.95
2022-09-15T03:42:32.627Z,17.93
2022-09-15T03:43:34.581Z,17.93
2022-09-15T03:44:35.873Z,17.92
2022-09-15T03:45:37.597Z,17.91
2022-09-15T03:46:38.953Z,17.93
2022-09-15T03:47:40.321Z,17.93
2022-09-15T03:48:41.659Z,17.95
2022-09-15T03:49:42.989Z,17.93
2022-09-15T03:50:44.312Z,17.96
2022-09-15T03:51:45.682Z,17.96
2022-09-15T03:52:47.020Z,17.95
2022-09-15T03:53:48.401Z,17.95
2022-09-15T03:54:49.706Z,17.93
2022-09-15T03:55:51.570Z,17.92
2022-09-15T03:56:52.909Z,17.95
2022-09-15T03:57:54.377Z,17.94
2022-09-15T03:58:55.701Z,17.99
2022-09-15T03:59:57.442Z,17.97
2022-09-15T04:00:58.864Z,17.98
2022-09-15T04:02:00.358Z,17.98
2022-09-15T04:03:01.809Z,17.97
2022-09-15T04:04:03.202Z,17.99
2022-09-15T04:05:04.740Z,18.01
2022-09-15T04:06:06.290Z,17.98
2022-09-15T04:07:07.734Z,17.99
2022-09-15T04:08:11.223Z,17.98
2022-09-15T04:09:12.652Z,17.98
2022-09-15T04:10:14.082Z,18.00
2022-09-15T04:11:16.486Z,17.98
2022-09-15T04:12:17.824Z,17.98
2022-09-15T04:13:27.958Z,17.98
2022-09-15T04:14:30.115Z,17.98
2022-09-15T04:15:31.435Z,17.97
2022-09-15T04:16:32.902Z,17.97
2022-09-15T04:17:34.312Z,17.99
2022-09-15T04:18:35.962Z,17.98
2022-09-15T04:19:37.292Z,18.00
2022-09-15T04:20:39.161Z,17.97
2022-09-15T04:21:40.468Z,17.97
2022-09-15T04:22:41.814Z,17.98
2022-09-15T04:23:43.319Z,17.98
2022-09-15T04:24:44.661Z,18.00
2022-09-15T04:25:54.429Z,17.99
2022-09-15T04:26:55.745Z,18.00
2022-09-15T04:27:57.289Z,17.99
2022-09-15T04:29:03.695Z,17.97
2022-09-15T04:30:08.867Z,17.98
2022-09-15T04:31:11.408Z,17.99
2022-09-15T04:32:12.799Z,17.98
2022-09-15T04:33:14.166Z,17.99
2022-09-15T04:34:15.586Z,18.00
2022-09-15T04:35:18.540Z,18.01
2022-09-15T04:36:21.381Z,18.01
2022-09-15T04:37:23.189Z,17.98
2022-09-15T04:38:24.722Z,18.00
2022-09-15T04:39:26.147Z,18.04
2022-09-15T04:40:27.655Z,18.03
2022-09-15T04:41:29.123Z,18.03
2022-09-15T04:42:30.462Z,18.02
2022-09-15T04:43:32.046Z,18.03
2022-09-15T04:44:33.813Z,18.03
2022-09-15T04:45:35.253Z,18.03
2022-09-15T04:46:36.897Z,18.02
2022-09-15T04:47:38.318Z,18.01
2022-09-15T04:48:39.758Z,18.01
2022-09-15T04:49:41.123Z,18.00
2022-09-15T04:50:42.743Z,18.00
2022-09-15T04:51:44.222Z,17.98
2022-09-15T04:52:45.738Z,17.96
2022-09-15T04:53:47.862Z,17.97
2022-09-15T04:54:52.805Z,17.95
2022-09-15T04:56:02.245Z,17.95
2022-09-15T04:57:04.099Z,17.96
2022-09-15T04:58:05.950Z,17.96
2022-09-15T04:59:13.410Z,17.96
2022-09-15T05:00:18.352Z,17.93
2022-09-15T05:01:24.730Z,17.95
2022-09-15T05:02:26.197Z,17.93
2022-09-15T05:03:27.572Z,17.93
2022-09-15T05:04:29.287Z,17.94
2022-09-15T05:05:33.284Z,17.95
2022-09-15T05:06:36.405Z,17.95
2022-09-15T05:07:37.770Z,17.96
2022-09-15T05:08:39.235Z,17.97
2022-09-15T05:09:40.578Z,17.99
2022-09-15T05:10:41.894Z,18.03
2022-09-15T05:11:43.203Z,18.02
2022-09-15T05:12:44.976Z,18.01
2022-09-15T05:13:46.796Z,18.02
2022-09-15T05:14:48.212Z,18.04
2022-09-15T05:15:49.561Z,18.04
2022-09-15T05:16:51.283Z,18.05
2022-09-15T05:17:52.885Z,18.04
2022-09-15T05:18:55.530Z,18.04
2022-09-15T05:19:56.856Z,18.04
2022-09-15T05:20:58.896Z,18.03
2022-09-15T05:22:00.212Z,18.06
2022-09-15T05:23:01.565Z,18.06
2022-09-15T05:24:02.881Z,18.05
2022-09-15T05:25:04.345Z,18.05
2022-09-15T05:26:06.843Z,18.05
2022-09-15T05:27:08.284Z,18.07
2022-09-15T05:28:09.633Z,18.08
2022-09-15T05:29:10.951Z,18.06
2022-09-15T05:31:33.822Z,18.08
2022-09-15T05:32:35.286Z,18.10
2022-09-15T05:33:36.636Z,18.11
2022-09-15T05:34:37.952Z,18.10
2022-09-15T05:35:39.272Z,18.11
2022-09-15T05:36:40.625Z,18.13
2022-09-15T05:37:41.953Z,18.14
2022-09-15T05:38:43.560Z,18.13
2022-09-15T05:39:44.969Z,18.15
2022-09-15T05:40:46.737Z,18.14
2022-09-15T05:41:48.042Z,18.15
2022-09-15T05:42:49.382Z,18.14
2022-09-15T05:43:50.692Z,18.13
2022-09-15T05:44:52.023Z,18.14
2022-09-15T05:45:56.268Z,18.15
2022-09-15T05:46:57.615Z,18.14
2022-09-15T05:47:58.967Z,18.16
2022-09-15T05:49:00.300Z,18.16
2022-09-15T05:50:01.619Z,18.15
2022-09-15T05:51:03.915Z,18.17
2022-09-15T05:52:05.241Z,18.16
2022-09-15T05:53:06.719Z,18.14
2022-09-15T05:54:08.092Z,18.13
2022-09-15T05:55:09.381Z,18.11
2022-09-15T05:56:11.853Z,18.11
2022-09-15T05:57:13.211Z,18.11
2022-09-15T05:58:14.597Z,18.09
2022-09-15T05:59:15.977Z,18.08
2022-09-15T06:00:17.380Z,18.06
2022-09-15T06:01:23.221Z,18.06
2022-09-15T06:02:24.689Z,18.05
2022-09-15T06:03:30.648Z,18.03
2022-09-15T06:04:32.399Z,18.04
2022-09-15T06:05:33.819Z,18.05
2022-09-15T06:06:35.114Z,18.06
2022-09-15T06:07:36.420Z,18.07
2022-09-15T06:08:42.568Z,18.07
2022-09-15T06:09:45.505Z,18.06
2022-09-15T06:10:46.900Z,18.07
2022-09-15T06:11:48.275Z,18.07
2022-09-15T06:13:05.789Z,18.06
2022-09-15T06:14:07.240Z,18.08
2022-09-15T06:15:08.798Z,18.07
2022-09-15T06:16:14.473Z,18.07
2022-09-15T06:17:18.649Z,18.07
2022-09-15T06:18:19.981Z,18.07
2022-09-15T06:19:21.303Z,18.08
2022-09-15T06:20:22.877Z,18.09
2022-09-15T06:21:25.452Z,18.10
2022-09-15T06:22:27.716Z,18.09
2022-09-15T06:23:29.022Z,18.10
2022-09-15T06:24:30.422Z,18.09
2022-09-15T06:25:31.762Z,18.09
2022-09-15T06:26:33.572Z,18.09
2022-09-15T06:27:34.884Z,18.12
2022-09-15T06:28:36.185Z,18.11
2022-09-15T06:29:37.608Z,18.10
2022-09-15T06:30:39.584Z,18.09
2022-09-15T06:31:41.040Z,18.08
2022-09-15T06:32:46.180Z,18.07
2022-09-15T06:33:50.601Z,18.09
2022-09-15T06:34:51.937Z,18.09
2022-09-15T06:35:53.292Z,18.10
2022-09-15T06:36:54.669Z,18.13
2022-09-15T06:37:56.042Z,18.12
2022-09-15T06:38:57.990Z,18.11
2022-09-15T06:39:59.420Z,18.09
2022-09-15T06:41:00.934Z,18.10
2022-09-15T06:42:04.261Z,18.11
2022-09-15T06:43:08.925Z,18.11
2022-09-15T06:44:10.277Z,18.13
2022-09-15T06:45:11.605Z,18.18
2022-09-15T06:46:14.351Z,18.20
2022-09-15T06:47:15.714Z,18.18
2022-09-15T06:48:24.578Z,18.22
2022-09-15T06:49:26.600Z,18.22
2022-09-15T06:50:28.010Z,18.25
2022-09-15T06:51:29.510Z,18.25
2022-09-15T06:52:30.852Z,18.24
2022-09-15T06:53:32.941Z,18.21
2022-09-15T06:54:34.294Z,18.17
2022-09-15T06:55:35.595Z,18.17
2022-09-15T06:56:38.278Z,18.15
2022-09-15T06:57:39.845Z,18.14
2022-09-15T06:58:41.925Z,18.13
2022-09-15T06:59:43.300Z,18.14
2022-09-15T07:00:44.679Z,18.13
2022-09-15T07:01:46.098Z,18.10
2022-09-15T07:02:50.481Z,18.14
2022-09-15T07:03:51.951Z,18.12
2022-09-15T07:04:53.282Z,18.15
2022-09-15T07:05:54.680Z,18.14
2022-09-15T07:06:56.293Z,18.13
2022-09-15T07:07:57.599Z,18.10
2022-09-15T07:08:59.050Z,18.09
2022-09-15T07:10:00.387Z,18.07
2022-09-15T07:11:01.709Z,18.05
2022-09-15T07:12:03.046Z,18.06
2022-09-15T07:13:04.346Z,18.06
2022-09-15T07:14:05.721Z,18.08
2022-09-15T07:15:07.335Z,18.13
2022-09-15T07:16:09.634Z,18.11
2022-09-15T07:17:11.037Z,18.10
2022-09-15T07:18:12.366Z,18.12
2022-09-15T07:19:13.743Z,18.15
2022-09-15T07:20:15.111Z,18.15
2022-09-15T07:21:20.169Z,18.18
2022-09-15T07:22:21.544Z,18.18
2022-09-15T07:23:22.861Z,18.22
2022-09-15T07:24:24.272Z,18.24
2022-09-15T07:25:25.604Z,18.25
2022-09-15T07:26:28.441Z,18.27
2022-09-15T07:27:29.782Z,18.33
2022-09-15T07:28:31.086Z,18.33
2022-09-15T07:29:37.109Z,18.35
2022-09-15T07:30:39.115Z,18.36
2022-09-15T07:31:40.594Z,18.36
2022-09-15T07:32:41.966Z,18.38
2022-09-15T07:33:43.380Z,18.45
2022-09-15T07:34:44.706Z,18.50
2022-09-15T07:35:46.077Z,18.53
2022-09-15T07:36:47.429Z,18.57
2022-09-15T07:37:48.759Z,18.62
2022-09-15T07:38:50.556Z,18.64
2022-09-15T07:39:51.944Z,18.68
2022-09-15T07:40:53.341Z,18.71
2022-09-15T07:41:54.723Z,18.70
2022-09-15T07:42:56.058Z,18.75
2022-09-15T07:43:58.590Z,18.82
2022-09-15T07:44:59.903Z,18.88
2022-09-15T07:46:01.844Z,18.90
2022-09-15T07:47:03.249Z,18.97
2022-09-15T07:48:04.636Z,18.99
2022-09-15T07:49:05.945Z,19.04
2022-09-15T07:50:07.493Z,19.05
2022-09-15T07:51:08.854Z,19.04
2022-09-15T07:52:10.178Z,19.06
2022-09-15T07:53:11.478Z,19.14
2022-09-15T07:54:12.878Z,19.17
2022-09-15T07:55:14.285Z,19.21
2022-09-15T07:56:16.049Z,19.26
2022-09-15T07:57:17.473Z,19.29
2022-09-15T07:58:18.853Z,19.25
2022-09-15T07:59:20.178Z,19.24
2022-09-15T08:00:21.510Z,19.31
2022-09-15T08:01:22.912Z,19.29
2022-09-15T08:02:24.368Z,19.26
2022-09-15T08:03:25.765Z,19.27
2022-09-15T08:04:30.102Z,19.27
2022-09-15T08:05:34.716Z,19.24
2022-09-15T08:06:38.701Z,19.25
2022-09-15T08:07:40.055Z,19.21
2022-09-15T08:08:41.784Z,19.19
2022-09-15T08:09:43.102Z,19.14
2022-09-15T08:10:44.444Z,19.13
2022-09-15T08:11:45.786Z,19.07
2022-09-15T08:12:47.164Z,19.06
2022-09-15T08:13:49.050Z,19.07
2022-09-15T08:14:50.534Z,19.08
2022-09-15T08:15:52.003Z,19.11
2022-09-15T08:16:53.370Z,19.12
2022-09-15T08:17:54.759Z,19.12
2022-09-15T08:18:56.079Z,19.12
2022-09-15T08:19:57.393Z,19.09
2022-09-15T08:20:58.703Z,19.09
2022-09-15T08:22:00.374Z,19.06
2022-09-15T08:23:01.743Z,19.06
2022-09-15T08:24:03.229Z,19.04
2022-09-15T08:25:04.694Z,19.02
2022-09-15T08:26:10.635Z,18.99
2022-09-15T08:27:14.548Z,18.94
2022-09-15T08:28:15.886Z,18.95
2022-09-15T08:29:17.917Z,18.91
2022-09-15T08:30:19.269Z,18.87
2022-09-15T08:31:20.655Z,18.87
2022-09-15T08:32:22.033Z,18.87
2022-09-15T08:33:23.419Z,18.86
2022-09-15T08:34:24.761Z,18.86
2022-09-15T08:35:26.125Z,18.84
2022-09-15T08:36:27.463Z,18.83
2022-09-15T08:37:28.934Z,18.76
2022-09-15T08:38:30.798Z,18.76
2022-09-15T08:39:32.108Z,18.76
2022-09-15T08:40:35.880Z,18.75
2022-09-15T08:41:39.750Z,18.77
2022-09-15T08:42:44.950Z,18.75
2022-09-15T08:43:50.350Z,18.72
2022-09-15T08:44:54.482Z,18.72
2022-09-15T08:46:00.555Z,18.71
2022-09-15T08:47:01.946Z,18.68
2022-09-15T08:48:04.689Z,18.68
2022-09-15T08:49:06.027Z,18.72
2022-09-15T08:50:11.590Z,18.72
2022-09-15T08:51:16.906Z,18.68
2022-09-15T08:52:33.445Z,18.65
2022-09-15T08:53:37.417Z,18.65
2022-09-15T08:54:38.835Z,18.68
2022-09-15T08:55:43.597Z,18.71
2022-09-15T08:56:45.374Z,18.74
2022-09-15T08:57:46.694Z,18.74
2022-09-15T08:58:48.160Z,18.77
2022-09-15T08:59:49.567Z,18.81
2022-09-15T09:00:57.757Z,18.86
2022-09-15T09:02:18.000Z,18.90
2022-09-15T09:03:40.027Z,18.95
2022-09-15T09:04:41.346Z,18.96
2022-09-15T09:05:42.647Z,18.97
2022-09-15T09:06:43.978Z,18.93
2022-09-15T09:07:51.302Z,18.95
2022-09-15T09:09:00.546Z,18.95
2022-09-15T09:10:13.863Z,18.91
2022-09-15T09:11:34.017Z,18.95
2022-09-15T09:12:44.291Z,18.88
2022-09-15T09:14:03.993Z,18.87
2022-09-15T09:15:08.573Z,18.84
2022-09-15T09:16:12.703Z,18.79
2022-09-15T09:17:30.867Z,18.65
2022-09-15T09:18:32.212Z,18.65
2022-09-15T09:19:45.596Z,18.64
2022-09-15T09:21:02.357Z,18.64
2022-09-15T09:22:09.228Z,18.75
2022-09-15T09:23:15.139Z,18.75
2022-09-15T09:24:17.835Z,18.68
2022-09-15T09:25:26.734Z,18.65
2022-09-15T09:26:30.845Z,18.65
2022-09-15T09:27:33.998Z,18.61
2022-09-15T09:28:37.743Z,18.52
2022-09-15T09:29:44.654Z,18.57
2022-09-15T09:30:46.171Z,18.56
2022-09-15T09:31:48.796Z,18.55
2022-09-15T09:33:03.509Z,18.51
2022-09-15T09:34:18.162Z,18.46
2022-09-15T09:35:45.399Z,18.42
2022-09-15T09:36:52.631Z,18.37
2022-09-15T09:37:54.170Z,18.39
2022-09-15T09:38:55.814Z,18.35
2022-09-15T09:39:57.256Z,18.24
2022-09-15T09:41:02.338Z,18.18
2022-09-15T09:42:04.578Z,18.16
2022-09-15T09:43:05.918Z,18.12
2022-09-15T09:44:10.610Z,18.13
2022-09-15T09:45:16.378Z,18.16
2022-09-15T09:46:18.937Z,18.08
2022-09-15T09:47:20.842Z,18.03
2022-09-15T09:48:23.906Z,18.00
2022-09-15T09:49:26.021Z,17.93
2022-09-15T09:50:31.667Z,17.86
2022-09-15T09:51:35.070Z,17.71
2022-09-15T09:52:37.624Z,17.55
2022-09-15T09:53:38.928Z,17.52
2022-09-15T09:54:40.298Z,17.50
2022-09-15T09:55:41.613Z,17.52
2022-09-15T09:56:44.093Z,17.59
2022-09-15T09:57:45.586Z,17.59
2022-09-15T09:58:47.007Z,17.55
2022-09-15T09:59:49.438Z,17.51
2022-09-15T10:00:52.205Z,17.47
2022-09-15T10:02:12.023Z,17.41
2022-09-15T10:03:20.805Z,17.38
2022-09-15T10:04:22.708Z,17.37
2022-09-15T10:05:24.069Z,17.36
2022-09-15T10:06:29.859Z,17.32
2022-09-15T10:07:32.626Z,17.18
2022-09-15T10:08:35.175Z,17.11
2022-09-15T10:09:37.073Z,17.16
2022-09-15T10:10:38.417Z,17.07
2022-09-15T10:11:39.699Z,17.06
2022-09-15T10:12:41.250Z,17.07
2022-09-15T10:13:53.670Z,17.10
2022-09-15T10:14:56.612Z,16.99
2022-09-15T10:16:00.533Z,16.90
2022-09-15T10:17:10.946Z,16.84
2022-09-15T10:18:32.775Z,16.86
2022-09-15T10:19:36.869Z,16.87
2022-09-15T10:20:47.171Z,16.87
2022-09-15T10:21:49.195Z,16.84
2022-09-15T10:22:50.946Z,16.83
2022-09-15T10:23:52.422Z,16.78
2022-09-15T10:24:54.056Z,16.81
2022-09-15T10:26:00.605Z,16.81
2022-09-15T10:27:14.327Z,16.78
2022-09-15T10:28:16.834Z,16.77
2022-09-15T10:29:18.557Z,16.75
2022-09-15T10:30:20.089Z,16.76
2022-09-15T10:31:28.373Z,16.67
2022-09-15T10:32:30.861Z,16.67
2022-09-15T10:33:33.799Z,16.65
2022-09-15T10:34:36.183Z,16.66
2022-09-15T10:35:41.402Z,16.71
2022-09-15T10:36:43.669Z,16.67
2022-09-15T10:37:54.386Z,16.58
2022-09-15T10:39:10.686Z,16.48
2022-09-15T10:40:30.960Z,16.38
2022-09-15T10:41:35.775Z,16.42
2022-09-15T10:42:57.350Z,16.43
2022-09-15T10:44:01.497Z,16.38
2022-09-15T10:45:05.639Z,16.35
2022-09-15T10:46:37.519Z,16.34
2022-09-15T10:47:49.115Z,16.28
2022-09-15T10:49:02.507Z,16.22
2022-09-15T10:50:28.854Z,16.19
2022-09-15T10:52:05.768Z,16.11
2022-09-15T10:53:16.713Z,15.99
2022-09-15T10:54:31.261Z,16.01
2022-09-15T10:55:53.648Z,16.00
2022-09-15T10:56:57.824Z,15.98
2022-09-15T10:58:02.300Z,15.94
2022-09-15T10:59:03.656Z,16.01
2022-09-15T11:00:08.476Z,16.05
2022-09-15T11:01:19.159Z,16.01
2022-09-15T11:02:28.750Z,16.03
2022-09-15T11:03:42.546Z,16.04
2022-09-15T11:04:51.201Z,16.00
2022-09-15T11:05:55.570Z,16.07
2022-09-15T11:07:06.021Z,16.10
2022-09-15T11:08:13.261Z,16.12
2022-09-15T11:09:19.148Z,16.09
2022-09-15T11:10:29.678Z,16.04
2022-09-15T11:11:49.362Z,16.06
2022-09-15T11:13:09.505Z,16.08
2022-09-15T11:14:20.065Z,16.16
2022-09-15T11:15:30.257Z,16.10
2022-09-15T11:16:40.739Z,16.09
2022-09-15T11:17:59.766Z,16.13
2022-09-15T11:19:01.156Z,16.08
2022-09-15T11:20:02.457Z,16.05
2022-09-15T11:21:22.526Z,16.14
2022-09-15T11:22:29.633Z,16.08
2022-09-15T11:23:30.946Z,16.15
2022-09-15T11:24:38.342Z,16.18
2022-09-15T11:25:42.351Z,16.19
2022-09-15T11:26:47.021Z,16.19
2022-09-15T11:27:53.241Z,16.23
2022-09-15T11:29:05.513Z,16.30
2022-09-15T11:30:09.667Z,16.33
2022-09-15T11:31:17.199Z,16.38
2022-09-15T11:32:24.261Z,16.44
2022-09-15T11:33:29.072Z,16.34
2022-09-15T11:34:35.547Z,16.37
2022-09-15T11:35:46.192Z,16.31
2022-09-15T11:36:52.009Z,16.25
2022-09-15T11:37:54.600Z,16.20
2022-09-15T11:39:00.482Z,16.19
2022-09-15T11:40:01.832Z,16.10
2022-09-15T11:41:21.978Z,16.04
2022-09-15T11:42:37.592Z,16.12
2022-09-15T11:43:42.876Z,16.25
2022-09-15T11:44:44.997Z,16.36
2022-09-15T11:45:50.498Z,16.45
2022-09-15T11:47:10.789Z,16.46
2022-09-15T11:48:24.197Z,16.46
2022-09-15T11:49:36.736Z,16.60
2022-09-15T11:50:41.938Z,16.70
2022-09-15T11:51:47.770Z,16.75
2022-09-15T11:52:51.735Z,16.89
2022-09-15T11:53:55.896Z,17.01
2022-09-15T11:55:02.764Z,17.04
2022-09-15T11:56:16.707Z,17.18
2022-09-15T11:57:21.009Z,17.30
2022-09-15T11:58:50.218Z,17.31
2022-09-15T11:59:51.549Z,17.34
2022-09-15T12:00:54.888Z,17.10
2022-09-15T12:02:14.740Z,17.10
2022-09-15T12:03:18.891Z,17.04
2022-09-15T12:04:35.179Z,17.08
2022-09-15T12:05:39.065Z,17.06
2022-09-15T12:06:45.721Z,17.05
2022-09-15T12:07:47.481Z,17.06
2022-09-15T12:08:59.291Z,17.13
2022-09-15T12:10:13.498Z,17.14
2022-09-15T12:11:26.151Z,17.15
2022-09-15T12:12:30.671Z,17.18
2022-09-15T12:13:33.065Z,17.21
2022-09-15T12:14:37.591Z,17.28
2022-09-15T12:15:39.236Z,17.26
2022-09-15T12:16:40.940Z,17.35
2022-09-15T12:17:48.745Z,17.44
2022-09-15T12:18:50.050Z,17.46
2022-09-15T12:20:01.421Z,17.55
2022-09-15T12:21:02.863Z,17.53
2022-09-15T12:22:11.700Z,17.53
2022-09-15T12:23:21.574Z,17.58
2022-09-15T12:24:28.957Z,17.62
2022-09-15T12:25:33.667Z,17.63
2022-09-15T12:26:35.330Z,17.65
2022-09-15T12:27:36.747Z,17.73
2022-09-15T12:28:39.705Z,17.76
2022-09-15T12:29:47.380Z,17.82
2022-09-15T12:30:49.489Z,17.97
2022-09-15T12:32:10.757Z,17.99
2022-09-15T12:33:30.732Z,18.14
2022-09-15T12:34:36.294Z,18.15
2022-09-15T12:35:37.696Z,18.21
2022-09-15T12:36:48.723Z,18.24
2022-09-15T12:37:57.953Z,18.30
2022-09-15T12:38:59.859Z,18.37
2022-09-15T12:40:01.514Z,18.50
2022-09-15T12:41:02.997Z,18.53
2022-09-15T12:42:06.430Z,18.34
2022-09-15T12:43:10.722Z,18.26
2022-09-15T12:44:19.658Z,18.23
2022-09-15T12:45:24.014Z,18.29
2022-09-15T12:46:25.648Z,18.34
2022-09-15T12:47:33.281Z,18.26
2022-09-15T12:48:35.434Z,18.28
2022-09-15T12:49:42.843Z,18.32
2022-09-15T12:50:51.810Z,18.20
2022-09-15T12:51:53.173Z,18.22
2022-09-15T12:52:56.926Z,18.33
2022-09-15T12:54:00.955Z,18.38
2022-09-15T12:55:03.328Z,18.48
2022-09-15T12:56:06.815Z,18.48
2022-09-15T12:57:18.802Z,18.59
2022-09-15T12:58:25.239Z,18.66
2022-09-15T12:59:27.459Z,18.66
2022-09-15T13:00:31.014Z,18.71
2022-09-15T13:01:37.663Z,18.64
2022-09-15T13:02:43.389Z,18.58
2022-09-15T13:03:44.763Z,18.63
2022-09-15T13:04:53.979Z,18.63
2022-09-15T13:06:10.142Z,18.61
2022-09-15T13:07:14.567Z,18.57
2022-09-15T13:08:25.144Z,18.53
2022-09-15T13:09:28.055Z,18.55
2022-09-15T13:10:29.421Z,18.63
2022-09-15T13:11:33.537Z,18.69
2022-09-15T13:12:37.826Z,18.78
2022-09-15T13:14:06.273Z,18.91
2022-09-15T13:15:12.842Z,18.84
2022-09-15T13:16:17.756Z,18.95
2022-09-15T13:17:21.939Z,18.97
2022-09-15T13:18:23.761Z,19.01
2022-09-15T13:19:39.068Z,18.96
2022-09-15T13:20:45.698Z,19.01
2022-09-15T13:22:05.351Z,19.07
2022-09-15T13:23:09.054Z,18.96
2022-09-15T13:24:23.679Z,18.85
2022-09-15T13:25:29.305Z,18.71
2022-09-15T13:26:31.832Z,18.69
2022-09-15T13:27:33.174Z,18.76
2022-09-15T13:28:35.087Z,18.74
2022-09-15T13:29:42.304Z,18.84
2022-09-15T13:30:52.726Z,18.90
2022-09-15T13:32:03.406Z,18.92
2022-09-15T13:33:23.950Z,18.88
2022-09-15T13:36:15.858Z,18.86
2022-09-15T13:38:47.390Z,19.03
2022-09-15T13:40:07.680Z,19.00
2022-09-15T13:41:23.880Z,19.09
2022-09-15T13:42:41.344Z,19.21
2022-09-15T13:44:01.308Z,19.37
2022-09-15T13:45:21.214Z,19.38
2022-09-15T13:46:22.699Z,19.36
2022-09-15T13:47:42.970Z,19.35
2022-09-15T13:48:50.135Z,19.39
2022-09-15T13:50:06.193Z,19.34
2022-09-15T13:51:18.743Z,19.39
2022-09-15T13:52:20.232Z,19.44
2022-09-15T13:53:27.327Z,19.27
2022-09-15T13:54:28.678Z,19.32
2022-09-15T13:55:37.685Z,19.39
2022-09-15T13:56:39.543Z,19.50